Time;durP1;ratioP1;P1;durP2;ratioP2;P2;SDS_P1;SDS_P2;PMS_P1;PMS_P2;Temp;Humidity;BMP_temperature;BMP_pressure;BME280_temperature;BME280_humidity;BME280_pressure;Samples;Min_cycle;Max_cycle;Signal;HPM_P1;HPM_P2
2023/03/18 00:02:01;;;;;;;5.93;2.65;;;9.60;99.90;;;;;;5016402;28;20199;-86
2023/03/18 00:04:26;;;;;;;5.47;3.53;;;9.50;99.90;;;;;;5016436;28;20213;-86
2023/03/18 00:06:53;;;;;;;9.05;3.45;;;9.50;99.90;;;;;;5003901;28;20183;-86
2023/03/18 00:09:19;;;;;;;4.43;2.55;;;9.50;99.90;;;;;;5015064;28;20155;-86
2023/03/18 00:11:45;;;;;;;4.78;2.90;;;9.50;99.90;;;;;;5014819;28;20171;-85
2023/03/18 00:14:11;;;;;;;4.38;2.90;;;9.40;99.90;;;;;;4997482;28;20233;-85
2023/03/18 00:16:37;;;;;;;6.30;3.28;;;9.40;99.90;;;;;;5034519;28;20639;-85
2023/03/18 00:19:03;;;;;;;5.20;2.80;;;9.30;99.90;;;;;;5016707;28;20511;-86
2023/03/18 00:24:08;;;;;;;4.30;2.92;;;9.40;99.90;;;;;;5374666;22;20730;-85
2023/03/18 00:26:35;;;;;;;2.95;2.60;;;9.40;99.90;;;;;;4996136;28;20183;-85
2023/03/18 00:29:01;;;;;;;5.00;2.47;;;9.40;99.90;;;;;;4996296;28;20187;-84
2023/03/18 00:31:28;;;;;;;5.50;2.90;;;9.40;99.90;;;;;;5015091;28;20181;-84
2023/03/18 00:33:54;;;;;;;4.40;2.72;;;9.40;99.90;;;;;;4996940;28;20226;-84
2023/03/18 00:36:24;;;;;;;7.07;2.60;;;9.40;99.90;;;;;;4997049;28;20171;-84
2023/03/18 00:38:56;;;;;;;7.90;3.20;;;9.40;99.90;;;;;;5013659;28;20222;-84
2023/03/18 00:41:25;;;;;;;5.03;2.80;;;9.50;99.90;;;;;;4996258;28;20187;-84
2023/03/18 00:43:51;;;;;;;4.93;2.60;;;9.50;99.90;;;;;;4996363;28;20656;-84
2023/03/18 00:46:30;;;;;;;5.20;2.40;;;9.50;99.90;;;;;;4997068;28;20214;-85
2023/03/18 00:48:59;;;;;;;4.88;2.55;;;9.50;99.90;;;;;;4996924;28;20171;-84
2023/03/18 00:51:27;;;;;;;3.47;2.53;;;9.50;99.90;;;;;;5013646;28;20174;-84
2023/03/18 00:53:56;;;;;;;5.97;2.80;;;9.50;99.90;;;;;;5013085;28;20614;-84
2023/03/18 00:56:25;;;;;;;5.70;2.80;;;9.50;99.90;;;;;;4996775;28;20183;-84
2023/03/18 00:58:56;;;;;;;4.68;2.60;;;9.50;99.90;;;;;;4996867;28;20214;-83
2023/03/18 01:01:22;;;;;;;3.92;2.50;;;9.50;99.90;;;;;;4996817;28;20179;-84
2023/03/18 01:03:49;;;;;;;4.22;2.45;;;9.50;99.90;;;;;;4995897;28;20291;-84
2023/03/18 01:06:21;;;;;;;5.68;2.42;;;9.50;99.90;;;;;;5013450;28;20241;-84
2023/03/18 01:08:48;;;;;;;3.92;2.55;;;9.40;99.90;;;;;;4992278;28;20180;-84
2023/03/18 01:11:15;;;;;;;3.85;2.38;;;9.40;99.90;;;;;;4997559;28;20190;-84
2023/03/18 01:13:41;;;;;;;5.35;2.65;;;9.40;99.90;;;;;;4996566;28;20182;-85
2023/03/18 01:16:08;;;;;;;3.75;2.42;;;9.40;99.90;;;;;;4996742;28;20179;-83
2023/03/18 01:18:35;;;;;;;5.53;2.15;;;9.40;99.90;;;;;;4996959;28;20640;-84
2023/03/18 01:21:01;;;;;;;4.22;2.03;;;9.50;99.90;;;;;;4995510;28;20203;-84
2023/03/18 01:23:29;;;;;;;4.15;2.15;;;9.50;99.90;;;;;;4980252;28;20290;-84
2023/03/18 01:25:54;;;;;;;2.95;2.08;;;9.40;99.90;;;;;;4993787;28;20207;-84
2023/03/18 01:28:21;;;;;;;3.40;1.92;;;9.40;99.90;;;;;;5010035;28;20636;-84
2023/03/18 01:30:47;;;;;;;4.25;2.38;;;9.40;99.90;;;;;;5012408;28;20182;-84
2023/03/18 01:33:14;;;;;;;6.22;2.53;;;9.40;99.90;;;;;;5012582;28;20182;-84
2023/03/18 01:35:41;;;;;;;4.15;2.28;;;9.50;99.90;;;;;;5013092;28;20201;-84
2023/03/18 01:38:07;;;;;;;5.18;2.30;;;9.50;99.90;;;;;;5013135;28;20172;-84
2023/03/18 01:40:36;;;;;;;3.97;2.20;;;9.50;99.90;;;;;;5029091;28;20281;-84
2023/03/18 01:43:19;;;;;;;3.20;1.90;;;9.40;99.90;;;;;;5012651;28;20270;-84
2023/03/18 01:45:50;;;;;;;3.50;1.88;;;9.50;99.90;;;;;;5003536;28;20614;-84
2023/03/18 01:48:18;;;;;;;2.50;1.80;;;9.50;99.90;;;;;;5003442;28;20175;-85
2023/03/18 01:50:48;;;;;;;2.97;2.03;;;9.50;99.90;;;;;;5011906;28;20183;-84
2023/03/18 01:53:15;;;;;;;2.38;1.55;;;9.60;99.90;;;;;;5011855;28;20207;-85
2023/03/18 01:55:44;;;;;;;3.83;1.80;;;9.60;99.90;;;;;;5013582;28;20171;-85
2023/03/18 01:58:28;;;;;;;5.18;1.80;;;9.80;99.90;;;;;;4996447;28;20180;-83
2023/03/18 02:00:59;;;;;;;7.50;1.90;;;9.90;99.90;;;;;;4996557;28;20198;-84
2023/03/18 02:03:26;;;;;;;3.10;1.70;;;9.90;99.90;;;;;;4996992;28;20178;-84
2023/03/18 02:05:52;;;;;;;2.60;1.48;;;10.00;99.90;;;;;;5006446;28;20207;-84
2023/03/18 02:08:18;;;;;;;4.55;1.80;;;10.00;99.90;;;;;;5017451;28;20195;-84
2023/03/18 02:10:44;;;;;;;3.88;1.60;;;10.00;99.90;;;;;;5015939;28;20265;-85
2023/03/18 02:13:13;;;;;;;3.25;1.55;;;9.90;99.90;;;;;;5015711;28;20183;-83
2023/03/18 02:15:52;;;;;;;3.08;1.58;;;9.90;99.90;;;;;;5015925;28;20179;-83
2023/03/18 02:18:24;;;;;;;2.28;1.58;;;9.90;99.90;;;;;;5015437;28;20175;-84
2023/03/18 02:21:07;;;;;;;6.40;1.60;;;9.80;99.90;;;;;;5016372;28;20228;-84
2023/03/18 02:23:57;;;;;;;5.90;2.03;;;9.80;99.90;;;;;;5015415;28;20227;-83
2023/03/18 02:26:34;;;;;;;6.00;1.90;;;9.80;99.90;;;;;;5016221;28;20194;-84
2023/03/18 02:29:02;;;;;;;2.45;1.50;;;9.80;99.90;;;;;;5014448;28;20249;-82
2023/03/18 02:31:28;;;;;;;2.08;1.60;;;9.80;99.90;;;;;;5015873;28;20514;-83
2023/03/18 02:33:55;;;;;;;3.15;1.58;;;9.70;99.90;;;;;;5017020;28;20259;-84
2023/03/18 02:36:27;;;;;;;2.30;1.55;;;9.70;99.90;;;;;;5016929;28;20233;-83
2023/03/18 02:38:53;;;;;;;3.88;1.33;;;9.70;99.90;;;;;;5015825;28;20171;-84
2023/03/18 02:41:22;;;;;;;4.07;1.70;;;9.80;99.90;;;;;;5015035;28;20195;-84
2023/03/18 02:43:49;;;;;;;5.10;1.48;;;9.80;99.90;;;;;;5014613;28;20544;-84
2023/03/18 02:46:30;;;;;;;4.15;1.80;;;9.70;99.90;;;;;;5014822;28;20190;-84
2023/03/18 02:48:59;;;;;;;2.63;1.40;;;9.70;99.90;;;;;;5016481;28;20229;-84
2023/03/18 02:51:26;;;;;;;2.67;1.60;;;9.70;99.90;;;;;;5015344;28;20313;-83
2023/03/18 02:54:00;;;;;;;2.83;1.50;;;9.70;99.90;;;;;;4999441;28;20219;-84
2023/03/18 02:56:31;;;;;;;4.20;1.90;;;9.70;99.90;;;;;;4994778;28;20325;-84
2023/03/18 02:58:57;;;;;;;2.03;1.60;;;9.70;99.90;;;;;;4993844;28;20687;-84
2023/03/18 03:01:23;;;;;;;5.35;1.90;;;9.70;99.90;;;;;;5015595;28;20266;-84
2023/03/18 03:03:50;;;;;;;2.78;1.90;;;9.70;99.90;;;;;;5016632;28;20237;-84
2023/03/18 03:06:16;;;;;;;3.22;1.40;;;9.70;99.90;;;;;;5014951;28;20185;-84
2023/03/18 03:08:43;;;;;;;2.25;1.55;;;9.70;99.90;;;;;;5014705;28;20175;-84
2023/03/18 03:11:10;;;;;;;2.97;1.50;;;9.70;99.90;;;;;;5014870;28;20266;-84
2023/03/18 03:13:39;;;;;;;3.17;1.60;;;9.70;99.90;;;;;;4998623;28;20606;-83
2023/03/18 03:16:06;;;;;;;3.95;1.63;;;9.70;99.90;;;;;;5014444;28;20528;-84
2023/03/18 03:18:34;;;;;;;2.83;1.63;;;9.80;99.90;;;;;;5007332;28;20273;-83
2023/03/18 03:21:00;;;;;;;4.88;1.63;;;9.80;99.90;;;;;;4994665;28;20200;-84
2023/03/18 03:23:26;;;;;;;3.55;1.60;;;9.80;99.90;;;;;;4994768;28;20562;-83
2023/03/18 03:25:52;;;;;;;3.05;1.52;;;9.80;99.90;;;;;;4995160;28;20223;-83
2023/03/18 03:28:18;;;;;;;3.33;1.75;;;9.80;99.90;;;;;;5003953;28;20179;-84
2023/03/18 03:30:44;;;;;;;4.05;1.48;;;9.80;99.90;;;;;;5012471;28;20183;-83
2023/03/18 03:33:10;;;;;;;4.05;1.80;;;9.80;99.90;;;;;;4994192;28;20231;-84
2023/03/18 03:35:37;;;;;;;3.90;1.65;;;9.80;99.90;;;;;;4995576;28;20184;-84
2023/03/18 03:38:03;;;;;;;3.75;1.75;;;9.80;99.90;;;;;;4994866;28;20183;-84
2023/03/18 03:40:29;;;;;;;3.47;1.63;;;9.80;99.90;;;;;;4994921;28;20518;-83
2023/03/18 03:42:55;;;;;;;2.28;1.73;;;9.80;99.90;;;;;;4995801;28;20561;-84
2023/03/18 03:45:21;;;;;;;2.80;1.67;;;9.80;99.90;;;;;;5011117;28;20246;-84
2023/03/18 03:47:47;;;;;;;5.18;2.00;;;9.80;99.90;;;;;;5013740;28;20278;-84
2023/03/18 03:50:14;;;;;;;4.32;1.80;;;9.80;99.90;;;;;;5013597;28;20630;-84
2023/03/18 03:52:41;;;;;;;3.92;1.60;;;9.80;99.90;;;;;;5009173;28;20184;-84
2023/03/18 03:55:08;;;;;;;4.60;1.67;;;9.80;99.90;;;;;;4995017;28;20618;-84
2023/03/18 03:57:36;;;;;;;3.38;1.65;;;9.70;99.90;;;;;;4994630;28;20222;-84
2023/03/18 04:00:03;;;;;;;9.02;1.98;;;9.70;99.90;;;;;;4994951;28;20184;-84
2023/03/18 04:02:29;;;;;;;5.05;2.25;;;9.70;99.90;;;;;;5005681;28;20291;-84
2023/03/18 04:04:55;;;;;;;2.83;1.80;;;9.80;99.90;;;;;;5014240;28;20332;-84
2023/03/18 04:07:21;;;;;;;4.07;1.60;;;9.80;99.90;;;;;;5015403;28;20175;-84
2023/03/18 04:09:46;;;;;;;2.90;1.67;;;9.80;99.90;;;;;;5012771;28;20175;-84
2023/03/18 04:12:13;;;;;;;5.20;1.80;;;9.80;99.90;;;;;;5013117;28;20178;-84
2023/03/18 04:14:39;;;;;;;2.97;1.50;;;9.90;99.90;;;;;;5013634;28;20590;-83
2023/03/18 04:17:05;;;;;;;5.05;1.90;;;10.00;99.90;;;;;;5013720;28;20274;-84
2023/03/18 04:19:31;;;;;;;4.97;1.75;;;10.00;99.90;;;;;;5013558;28;20283;-83
2023/03/18 04:21:56;;;;;;;5.28;1.85;;;10.10;99.90;;;;;;5014155;28;20203;-82
2023/03/18 04:24:22;;;;;;;4.22;1.45;;;10.10;99.90;;;;;;5012585;28;20239;-84
2023/03/18 04:26:48;;;;;;;4.90;1.65;;;10.20;99.90;;;;;;5014662;28;20179;-83
2023/03/18 04:29:15;;;;;;;5.28;2.20;;;10.20;99.90;;;;;;5013263;28;20625;-83
2023/03/18 04:31:41;;;;;;;2.88;1.55;;;10.30;99.90;;;;;;5014523;28;20217;-83
2023/03/18 04:34:07;;;;;;;4.80;1.65;;;10.20;99.90;;;;;;5012974;28;20203;-84
2023/03/18 04:36:32;;;;;;;4.15;1.75;;;10.30;99.90;;;;;;5012447;28;20183;-83
2023/03/18 04:38:58;;;;;;;2.60;1.75;;;10.30;99.90;;;;;;5013027;28;20253;-83
2023/03/18 04:41:24;;;;;;;7.22;2.10;;;10.20;99.90;;;;;;5012493;28;20621;-83
2023/03/18 04:43:50;;;;;;;3.28;1.90;;;10.20;99.90;;;;;;5014488;28;20222;-84
2023/03/18 04:46:16;;;;;;;6.57;1.63;;;10.10;99.90;;;;;;5012945;28;20218;-83
2023/03/18 04:48:42;;;;;;;5.97;1.52;;;10.10;99.90;;;;;;5012900;28;20183;-82
2023/03/18 04:51:08;;;;;;;3.33;2.08;;;10.10;99.90;;;;;;5012053;28;20624;-83
2023/03/18 04:53:37;;;;;;;4.72;2.00;;;10.10;99.90;;;;;;5012647;28;20191;-84
2023/03/18 04:56:04;;;;;;;6.55;2.35;;;10.10;99.90;;;;;;5013456;28;20530;-83
2023/03/18 04:58:30;;;;;;;5.28;1.65;;;10.00;99.90;;;;;;5011987;28;20286;-82
2023/03/18 05:00:56;;;;;;;8.63;2.00;;;10.10;99.90;;;;;;5012969;28;20681;-84
2023/03/18 05:03:22;;;;;;;2.10;1.67;;;10.10;99.90;;;;;;5014453;28;20179;-84
2023/03/18 05:05:48;;;;;;;6.13;2.50;;;10.10;99.90;;;;;;5013273;28;20257;-82
2023/03/18 05:08:15;;;;;;;4.05;2.30;;;10.00;99.90;;;;;;4998696;28;20184;-83
2023/03/18 05:10:41;;;;;;;2.70;1.80;;;10.00;99.90;;;;;;5003973;28;20233;-84
2023/03/18 05:13:08;;;;;;;5.78;2.20;;;10.00;99.90;;;;;;5012567;28;20179;-83
2023/03/18 05:15:34;;;;;;;7.03;2.58;;;10.00;99.90;;;;;;4994699;28;20183;-84
2023/03/18 05:18:00;;;;;;;3.42;2.05;;;10.00;99.90;;;;;;5001954;28;20187;-84
2023/03/18 05:20:26;;;;;;;5.15;2.38;;;10.00;99.90;;;;;;5012159;28;20258;-83
2023/03/18 05:22:52;;;;;;;4.30;2.13;;;10.00;99.90;;;;;;5013858;28;20613;-82
2023/03/18 05:25:19;;;;;;;5.40;2.08;;;10.00;99.90;;;;;;4996505;28;20225;-83
2023/03/18 05:27:47;;;;;;;4.82;2.58;;;10.00;99.90;;;;;;4996167;28;20539;-84
2023/03/18 05:30:14;;;;;;;4.65;2.30;;;9.90;99.90;;;;;;4995196;28;20309;-84
2023/03/18 05:32:41;;;;;;;6.43;2.15;;;9.80;99.90;;;;;;4995616;28;20183;-83
2023/03/18 05:35:09;;;;;;;6.10;2.45;;;9.80;99.90;;;;;;4996166;28;20636;-84
2023/03/18 05:37:35;;;;;;;6.18;2.30;;;9.80;99.90;;;;;;4996371;28;20180;-84
2023/03/18 05:40:03;;;;;;;5.20;2.10;;;9.80;99.90;;;;;;4996194;28;20172;-84
2023/03/18 05:42:28;;;;;;;2.63;2.03;;;9.80;99.90;;;;;;4995359;28;20221;-84
2023/03/18 05:44:55;;;;;;;6.57;3.03;;;9.70;99.90;;;;;;5012633;28;20218;-84
2023/03/18 05:47:21;;;;;;;4.47;2.30;;;9.60;99.90;;;;;;5013319;28;20167;-83
2023/03/18 05:49:47;;;;;;;4.15;2.25;;;9.60;99.90;;;;;;5003448;28;20512;-84
2023/03/18 05:52:16;;;;;;;5.55;2.55;;;9.60;99.90;;;;;;5011726;28;20670;-84
2023/03/18 05:54:42;;;;;;;3.45;2.20;;;9.60;99.90;;;;;;4983924;28;20183;-84
2023/03/18 05:57:08;;;;;;;6.70;2.72;;;9.60;99.90;;;;;;4989594;28;20176;-84
2023/03/18 05:59:33;;;;;;;9.02;2.75;;;9.60;99.90;;;;;;4995573;28;20191;-84
2023/03/18 06:01:59;;;;;;;6.30;2.40;;;9.50;99.90;;;;;;4976882;28;20506;-84
2023/03/18 06:04:26;;;;;;;3.50;2.15;;;9.50;99.90;;;;;;4980808;28;20265;-85
2023/03/18 06:06:52;;;;;;;4.75;2.50;;;9.60;99.90;;;;;;4995874;28;20206;-85
2023/03/18 06:09:18;;;;;;;5.18;2.30;;;9.50;99.90;;;;;;4995932;28;20207;-85
2023/03/18 06:11:44;;;;;;;4.60;2.42;;;9.50;99.90;;;;;;4996167;28;20610;-84
2023/03/18 06:14:10;;;;;;;6.93;2.53;;;9.50;99.90;;;;;;5012523;28;20179;-85
2023/03/18 06:16:36;;;;;;;7.55;2.00;;;9.50;99.90;;;;;;5013120;28;20514;-84
2023/03/18 06:19:03;;;;;;;7.10;2.47;;;9.40;99.90;;;;;;4995407;28;20187;-84
2023/03/18 06:21:31;;;;;;;5.82;2.45;;;9.40;99.90;;;;;;4995608;28;20566;-84
2023/03/18 06:23:57;;;;;;;3.97;2.05;;;9.40;99.90;;;;;;5013313;28;20223;-84
2023/03/18 06:26:23;;;;;;;3.30;2.40;;;9.30;99.90;;;;;;4995644;28;20203;-84
2023/03/18 06:28:50;;;;;;;6.93;2.67;;;9.30;99.90;;;;;;4994417;28;20795;-84
2023/03/18 06:31:16;;;;;;;6.97;3.55;;;9.30;99.90;;;;;;4994948;28;20191;-85
2023/03/18 06:33:42;;;;;;;6.40;2.90;;;9.30;99.90;;;;;;4995707;28;20187;-84
2023/03/18 06:36:09;;;;;;;6.95;2.97;;;9.30;99.90;;;;;;4995690;28;20626;-84
2023/03/18 06:38:36;;;;;;;4.60;2.72;;;9.40;99.90;;;;;;4995683;28;20187;-83
2023/03/18 06:41:02;;;;;;;6.35;2.55;;;9.40;99.90;;;;;;5012790;28;20206;-84
2023/03/18 06:43:28;;;;;;;4.90;2.63;;;9.50;99.90;;;;;;5014566;28;20622;-85
2023/03/18 06:45:54;;;;;;;5.53;2.60;;;9.40;99.90;;;;;;5015931;28;20713;-85
2023/03/18 06:48:19;;;;;;;10.23;2.90;;;9.50;99.90;;;;;;5015925;28;20195;-84
2023/03/18 06:50:45;;;;;;;6.53;2.65;;;9.50;99.90;;;;;;4997155;28;20194;-84
2023/03/18 06:53:11;;;;;;;6.28;2.78;;;9.50;99.90;;;;;;4992934;28;20245;-84
2023/03/18 06:55:37;;;;;;;6.05;3.08;;;9.60;99.90;;;;;;4998680;28;20179;-84
2023/03/18 06:58:04;;;;;;;6.50;2.67;;;9.60;99.90;;;;;;5016360;28;20171;-84
2023/03/18 07:00:30;;;;;;;5.57;2.60;;;9.70;99.90;;;;;;5016242;28;20627;-84
2023/03/18 07:02:56;;;;;;;5.55;3.05;;;9.80;99.90;;;;;;4999360;28;20175;-84
2023/03/18 07:05:22;;;;;;;7.07;2.47;;;9.80;99.90;;;;;;4993540;28;20222;-84
2023/03/18 07:07:49;;;;;;;5.50;2.80;;;9.90;99.90;;;;;;5002345;28;20301;-85
2023/03/18 07:10:21;;;;;;;6.43;2.80;;;9.90;99.90;;;;;;5015582;28;20592;-84
2023/03/18 07:12:49;;;;;;;8.07;2.80;;;10.00;99.90;;;;;;4998724;28;20175;-84
2023/03/18 07:15:15;;;;;;;6.05;2.53;;;10.10;99.90;;;;;;5011579;28;20542;-83
2023/03/18 07:17:42;;;;;;;5.65;2.53;;;10.30;99.90;;;;;;4985423;28;20180;-83
2023/03/18 07:20:09;;;;;;;6.88;2.42;;;10.40;99.90;;;;;;4995532;28;20631;-83
2023/03/18 07:22:36;;;;;;;5.93;2.30;;;10.50;99.90;;;;;;4995742;28;20176;-84
2023/03/18 07:25:02;;;;;;;6.15;2.67;;;10.50;99.90;;;;;;4978698;28;20204;-84
2023/03/18 07:27:28;;;;;;;8.18;2.60;;;10.60;99.90;;;;;;4978504;28;20188;-84
2023/03/18 07:29:55;;;;;;;3.88;2.25;;;10.60;99.90;;;;;;4977997;28;20214;-83
2023/03/18 07:32:22;;;;;;;5.72;2.45;;;10.80;99.90;;;;;;4995505;28;20154;-82
2023/03/18 07:34:48;;;;;;;6.20;2.42;;;10.80;99.90;;;;;;4978061;28;20187;-84
2023/03/18 07:37:14;;;;;;;6.82;2.15;;;10.90;99.90;;;;;;4979071;28;20184;-85
2023/03/18 07:39:42;;;;;;;5.00;2.50;;;11.00;99.90;;;;;;4978486;28;20187;-84
2023/03/18 07:42:09;;;;;;;4.45;2.45;;;11.10;99.90;;;;;;4978546;28;20184;-83
2023/03/18 07:44:36;;;;;;;4.47;2.33;;;11.20;99.90;;;;;;4977597;28;20822;-85
2023/03/18 07:47:02;;;;;;;3.83;2.30;;;11.20;99.90;;;;;;4977772;28;20179;-83
2023/03/18 07:49:29;;;;;;;8.43;2.67;;;11.30;99.90;;;;;;4977907;28;20188;-84
2023/03/18 07:51:55;;;;;;;7.03;2.50;;;11.30;99.90;;;;;;4978095;28;20203;-82
2023/03/18 07:54:22;;;;;;;6.95;2.55;;;11.40;99.90;;;;;;4977920;28;20187;-84
2023/03/18 07:56:49;;;;;;;4.50;2.78;;;11.50;99.90;;;;;;4977884;28;20280;-82
2023/03/18 07:59:14;;;;;;;5.13;2.38;;;11.50;99.90;;;;;;4977211;28;20303;-83
2023/03/18 08:01:40;;;;;;;4.00;2.17;;;11.70;99.90;;;;;;4977621;28;20635;-84
2023/03/18 08:04:06;;;;;;;7.80;2.50;;;11.70;99.90;;;;;;4978311;28;20258;-85
2023/03/18 08:06:33;;;;;;;4.88;2.53;;;11.70;99.90;;;;;;4978233;28;20212;-85
2023/03/18 08:09:00;;;;;;;5.72;2.28;;;11.70;99.90;;;;;;4978004;28;20691;-84
2023/03/18 08:11:26;;;;;;;4.15;2.40;;;11.80;99.90;;;;;;4994807;28;20227;-85
2023/03/18 08:13:52;;;;;;;8.07;2.30;;;11.90;99.90;;;;;;4977714;28;20184;-86
2023/03/18 08:16:17;;;;;;;5.18;2.45;;;12.10;99.90;;;;;;4977622;28;20191;-84
2023/03/18 08:18:44;;;;;;;3.55;2.03;;;12.10;99.90;;;;;;4978129;28;20259;-82
2023/03/18 08:21:10;;;;;;;3.05;1.90;;;12.00;99.90;;;;;;4977652;28;20266;-84
2023/03/18 08:23:36;;;;;;;6.22;2.47;;;12.10;99.90;;;;;;4977071;28;20671;-86
2023/03/18 08:26:03;;;;;;;5.65;2.80;;;12.10;99.90;;;;;;4978076;28;20208;-86
2023/03/18 08:28:28;;;;;;;8.13;2.13;;;12.20;99.90;;;;;;4977216;28;20176;-86
2023/03/18 08:30:56;;;;;;;5.20;1.83;;;12.20;99.90;;;;;;4978007;28;20270;-85
2023/03/18 08:33:23;;;;;;;4.30;2.08;;;12.30;99.90;;;;;;4978153;28;20223;-84
2023/03/18 08:35:50;;;;;;;3.40;2.00;;;12.30;99.90;;;;;;4969174;28;20223;-87
2023/03/18 08:38:17;;;;;;;5.63;2.17;;;12.30;99.90;;;;;;4977301;28;20274;-85
2023/03/18 08:40:43;;;;;;;2.72;2.15;;;12.40;99.90;;;;;;4977403;28;20575;-84
2023/03/18 08:43:09;;;;;;;6.07;2.15;;;12.30;99.90;;;;;;4994205;28;20176;-85
2023/03/18 08:45:38;;;;;;;7.78;2.17;;;12.40;99.90;;;;;;4977476;28;20218;-85
2023/03/18 08:48:04;;;;;;;2.85;1.98;;;12.40;99.90;;;;;;4995058;28;20187;-84
2023/03/18 08:50:30;;;;;;;6.97;2.78;;;12.30;99.90;;;;;;4993214;28;20192;-82
2023/03/18 08:52:59;;;;;;;6.93;2.13;;;12.30;99.90;;;;;;4976692;28;20631;-85
2023/03/18 08:55:30;;;;;;;4.38;1.95;;;12.30;99.90;;;;;;4991021;28;20179;-83
2023/03/18 08:57:57;;;;;;;6.05;1.92;;;12.60;99.90;;;;;;4958565;28;20187;-87
2023/03/18 09:00:24;;;;;;;5.95;1.98;;;12.80;99.90;;;;;;4958213;28;20181;-86
2023/03/18 09:02:51;;;;;;;4.75;2.05;;;12.80;99.90;;;;;;4974976;28;20249;-88
2023/03/18 09:05:18;;;;;;;5.13;2.20;;;12.90;99.90;;;;;;4960499;28;20212;-84
2023/03/18 09:07:44;;;;;;;3.22;2.05;;;12.90;99.90;;;;;;4976954;28;20184;-88
2023/03/18 09:10:13;;;;;;;5.32;2.25;;;13.00;99.90;;;;;;4977138;28;20194;-85
2023/03/18 09:12:41;;;;;;;7.13;1.92;;;13.20;99.90;;;;;;4977687;28;20182;-85
2023/03/18 09:15:09;;;;;;;4.30;2.13;;;13.20;99.90;;;;;;4977321;28;20183;-86
2023/03/18 09:17:37;;;;;;;5.53;2.17;;;13.20;99.90;;;;;;4976037;28;20617;-87
2023/03/18 09:20:07;;;;;;;4.38;2.05;;;13.30;99.90;;;;;;4976484;28;20184;-89
2023/03/18 09:22:33;;;;;;;8.82;2.20;;;13.50;99.90;;;;;;4976486;28;20188;-85
2023/03/18 09:24:59;;;;;;;4.20;2.40;;;13.60;99.90;;;;;;4977295;28;20211;-87
2023/03/18 09:27:25;;;;;;;8.57;2.55;;;13.60;99.90;;;;;;4977881;28;20176;-88
2023/03/18 09:29:53;;;;;;;2.97;2.00;;;13.70;99.90;;;;;;4977115;28;20180;-87
2023/03/18 09:32:18;;;;;;;3.67;1.98;;;13.70;99.90;;;;;;4985848;28;20191;-85
2023/03/18 09:34:45;;;;;;;4.28;2.35;;;13.80;99.90;;;;;;4958014;28;20518;-87
2023/03/18 09:37:12;;;;;;;6.78;2.65;;;13.90;99.90;;;;;;4962187;28;20184;-88
2023/03/18 09:39:39;;;;;;;4.55;2.33;;;14.10;99.90;;;;;;4977132;28;20180;-86
2023/03/18 09:42:42;;;;;;;5.20;2.47;;;14.00;99.90;;;;;;4976555;28;20172;-84
2023/03/18 09:45:47;;;;;;;5.88;2.50;;;14.00;99.90;;;;;;4969401;28;20258;-87
2023/03/18 09:48:55;;;;;;;4.95;2.97;;;14.20;99.90;;;;;;4957084;28;20278;-87
2023/03/18 09:51:39;;;;;;;4.35;2.90;;;14.40;99.90;;;;;;4964668;28;20214;-86
2023/03/18 09:54:26;;;;;;;5.45;3.47;;;14.60;99.90;;;;;;4975009;28;20662;-92
2023/03/18 09:56:54;;;;;;;7.32;3.97;;;14.60;99.90;;;;;;4976301;28;20176;-84
2023/03/18 09:59:22;;;;;;;5.95;3.53;;;14.40;99.90;;;;;;4977347;28;20243;-87
2023/03/18 10:01:53;;;;;;;8.55;3.72;;;14.40;99.90;;;;;;4994629;28;20180;-89
2023/03/18 10:04:21;;;;;;;5.60;3.30;;;14.20;99.90;;;;;;4994857;28;20172;-88
2023/03/18 10:06:51;;;;;;;6.15;3.47;;;14.30;99.90;;;;;;4975798;28;20183;-88
2023/03/18 10:09:33;;;;;;;5.60;3.85;;;14.20;99.90;;;;;;4976819;28;20275;-86
2023/03/18 10:12:18;;;;;;;7.93;3.85;;;14.20;99.90;;;;;;4977611;28;20168;-87
2023/03/18 10:15:10;;;;;;;5.55;3.88;;;14.20;99.90;;;;;;4977271;28;20172;-86
2023/03/18 10:17:39;;;;;;;7.10;3.97;;;14.10;99.90;;;;;;4980175;28;20172;-88
2023/03/18 10:20:23;;;;;;;7.32;3.40;;;14.10;99.90;;;;;;4973714;28;20180;-89
2023/03/18 10:23:15;;;;;;;4.78;3.05;;;14.10;99.90;;;;;;4998987;28;20176;-87
2023/03/18 10:26:10;;;;;;;7.05;4.07;;;14.20;99.90;;;;;;4999261;28;20250;-85
2023/03/18 10:28:57;;;;;;;8.48;3.35;;;14.20;99.90;;;;;;4982910;28;20702;-88
2023/03/18 10:31:59;;;;;;;7.22;3.85;;;14.20;99.90;;;;;;5000079;28;20186;-84
2023/03/18 10:34:43;;;;;;;7.45;3.85;;;14.30;99.90;;;;;;4999373;28;20202;-85
2023/03/18 10:37:23;;;;;;;9.10;3.55;;;14.30;99.90;;;;;;5016785;28;20171;-86
2023/03/18 10:39:50;;;;;;;8.40;3.90;;;14.20;99.90;;;;;;4999911;28;20527;-86
2023/03/18 10:42:30;;;;;;;5.45;4.53;;;14.30;99.90;;;;;;4999562;28;20186;-87
2023/03/18 10:45:24;;;;;;;6.10;3.85;;;14.50;99.90;;;;;;4982339;28;20212;-85
2023/03/18 10:47:59;;;;;;;9.70;4.53;;;14.80;99.90;;;;;;4979497;28;20192;-88
2023/03/18 10:50:35;;;;;;;6.45;3.30;;;15.40;99.90;;;;;;4980645;28;20202;-87
2023/03/18 10:53:13;;;;;;;9.02;3.67;;;15.70;99.90;;;;;;4980181;28;20203;-87
2023/03/18 10:56:06;;;;;;;4.43;2.95;;;15.60;99.90;;;;;;4996532;28;20550;-87
2023/03/18 10:58:32;;;;;;;6.60;3.50;;;15.40;99.90;;;;;;4995230;28;20250;-87
2023/03/18 11:00:59;;;;;;;7.03;3.40;;;15.20;99.90;;;;;;4995178;28;20179;-86
2023/03/18 11:03:33;;;;;;;5.10;2.42;;;15.10;99.90;;;;;;4995540;28;20165;-86
2023/03/18 11:06:03;;;;;;;4.60;3.15;;;15.10;99.90;;;;;;4997374;28;20290;-88
2023/03/18 11:08:36;;;;;;;4.22;2.55;;;15.00;99.90;;;;;;5013305;28;20237;-88
2023/03/18 11:11:31;;;;;;;5.65;2.85;;;15.10;99.90;;;;;;4999075;28;20167;-90
2023/03/18 11:13:58;;;;;;;5.78;3.00;;;15.30;99.90;;;;;;4986683;28;20234;-90
2023/03/18 11:16:44;;;;;;;3.60;2.15;;;15.60;99.90;;;;;;4980421;28;20176;-89
2023/03/18 11:19:31;;;;;;;3.30;2.13;;;16.00;99.90;;;;;;4997630;28;20247;-88
2023/03/18 11:22:09;;;;;;;5.07;2.28;;;15.80;99.90;;;;;;4992286;28;20225;-88
2023/03/18 11:24:43;;;;;;;4.22;1.92;;;15.50;99.90;;;;;;4999816;28;20231;-90
2023/03/18 11:27:17;;;;;;;5.88;2.10;;;15.30;99.90;;;;;;4996837;28;20199;-87
2023/03/18 11:30:18;;;;;;;3.15;1.88;;;15.50;99.90;;;;;;4979300;28;20202;-86
2023/03/18 11:32:59;;;;;;;3.13;1.92;;;15.60;99.90;;;;;;4996953;28;20175;-90
2023/03/18 11:35:44;;;;;;;3.30;1.98;;;15.60;99.90;;;;;;4980228;28;20180;-89
2023/03/18 11:38:31;;;;;;;6.45;1.80;;;15.60;99.90;;;;;;4979373;28;20176;-89
2023/03/18 11:41:21;;;;;;;4.32;1.92;;;15.80;99.90;;;;;;4979777;28;20517;-91
2023/03/18 11:44:01;;;;;;;2.53;1.70;;;15.90;99.90;;;;;;4979940;28;20180;-90
2023/03/18 11:46:34;;;;;;;3.67;1.88;;;16.00;99.90;;;;;;4997208;28;20203;-90
2023/03/18 11:49:00;;;;;;;5.15;2.00;;;15.80;99.90;;;;;;4979417;28;20179;-89
2023/03/18 11:51:53;;;;;;;4.63;1.80;;;15.60;99.90;;;;;;4978376;28;20195;-89
2023/03/18 11:54:43;;;;;;;3.58;1.95;;;15.40;99.90;;;;;;4979843;28;20232;-90
2023/03/18 11:57:24;;;;;;;2.55;1.67;;;15.30;99.90;;;;;;4979793;28;20180;-89
2023/03/18 12:00:17;;;;;;;3.85;1.90;;;15.40;99.90;;;;;;4979736;28;20263;-89
2023/03/18 12:02:55;;;;;;;4.95;1.95;;;15.30;99.90;;;;;;4979186;28;20194;-89
2023/03/18 12:05:33;;;;;;;5.28;1.83;;;15.20;99.90;;;;;;4978121;28;20235;-87
2023/03/18 12:08:23;;;;;;;6.05;2.47;;;15.20;99.90;;;;;;4978584;28;20217;-89
2023/03/18 12:11:18;;;;;;;5.45;1.75;;;15.20;99.90;;;;;;4979061;28;20275;-89
2023/03/18 12:13:49;;;;;;;3.80;1.90;;;15.20;99.90;;;;;;4989323;28;20191;-89
2023/03/18 12:16:57;;;;;;;2.85;1.40;;;15.30;99.90;;;;;;4996001;28;20626;-86
2023/03/18 12:19:32;;;;;;;3.30;1.30;;;15.70;99.90;;;;;;4979057;28;20601;-88
2023/03/18 12:22:14;;;;;;;2.25;1.40;;;15.70;99.90;;;;;;4995802;28;20263;-87
2023/03/18 12:25:14;;;;;;;1.88;1.10;;;15.50;99.90;;;;;;5013086;28;20314;-87
2023/03/18 12:28:25;;;;;;;2.22;1.08;;;15.60;99.90;;;;;;4998180;28;20189;-89
2023/03/18 12:31:21;;;;;;;5.72;1.10;;;16.00;99.90;;;;;;4997916;28;20233;-87
2023/03/18 12:33:57;;;;;;;3.58;1.20;;;16.60;99.90;;;;;;4988524;28;20183;-86
2023/03/18 12:36:34;;;;;;;2.22;1.00;;;16.80;99.90;;;;;;4997986;28;20255;-89
2023/03/18 12:39:19;;;;;;;1.63;1.10;;;16.70;99.90;;;;;;4997553;28;20182;-88
2023/03/18 12:42:18;;;;;;;1.65;0.98;;;16.70;99.90;;;;;;5014947;28;20606;-88
2023/03/18 12:45:07;;;;;;;1.65;1.15;;;16.60;99.90;;;;;;5015031;28;20648;-88
2023/03/18 12:47:55;;;;;;;1.23;1.10;;;16.50;99.90;;;;;;4997870;28;20180;-87
2023/03/18 12:50:24;;;;;;;2.38;1.30;;;16.30;99.90;;;;;;4997706;28;20267;-89
2023/03/18 12:52:54;;;;;;;2.88;1.30;;;16.10;99.90;;;;;;5014412;28;20364;-88
2023/03/18 12:55:20;;;;;;;2.95;1.15;;;15.90;99.90;;;;;;4997440;28;20202;-85
2023/03/18 12:58:07;;;;;;;2.45;0.90;;;15.90;99.90;;;;;;4997486;28;20183;-88
2023/03/18 13:00:56;;;;;;;2.97;1.20;;;15.80;99.90;;;;;;4997901;28;20186;-89
2023/03/18 13:03:39;;;;;;;3.10;1.45;;;15.80;99.90;;;;;;4997844;28;20266;-88
2023/03/18 13:06:19;;;;;;;2.20;1.33;;;15.80;99.90;;;;;;4997305;28;20565;-89
2023/03/18 13:09:05;;;;;;;2.15;1.20;;;15.90;99.90;;;;;;4997096;28;20620;-89
2023/03/18 13:12:00;;;;;;;1.98;1.10;;;15.90;99.90;;;;;;4997956;28;20520;-89
2023/03/18 13:14:39;;;;;;;3.10;1.23;;;15.90;99.90;;;;;;4997706;28;20525;-88